Aeroporto :
LOGIN :

Iscrizione | Disclaimer

   EN    FR    IT 

 










Sommario :    VFR   VFR Marginale   IFR   IFR Intensivo   IFR Molto Intensivo
Visibilità : 
Base nubi : 
>= 8 km
>= 3000ft
5 / 8 km
1000 / 3000 ft
1500m / 5 km
500 / 1000 ft
800 / 1500m
200 / 500 ft
< 800m
< 200 ft
Simboli :   Temporali  Nebbia  Neve Forte  Precipitazioni Forti  Vento > 20 kt
SIGMETs :   Varie  Temporali  Ghiacco  Turbolenza  Onda orograficha  Ceneri Vulcaniche







- Altitudine del aeroporto : 291 ft
- Codice IATA : ORY
- Carte del aeroporto


LFPO - Paris-Orly

ULTIMO METAR :
  • 211530Z 11010KT 080V140 CAVOK 24/01 Q1014 NOSIG

METARs OBSOLETI :
  • 211500Z 09010KT CAVOK 24/M00 Q1015 NOSIG
  • 211430Z 05008KT 020V090 CAVOK 24/02 Q1015 NOSIG
  • 211400Z 04008KT 010V070 CAVOK 23/03 Q1015 NOSIG
  • 211330Z 05010KT 020V090 CAVOK 24/01 Q1016 NOSIG
  • 211300Z 06008KT 010V110 CAVOK 24/02 Q1016 NOSIG

TAF TAF LFPO
Valido dal 21 a 12 ore il 22 a 18 ore UTC


211100Z 2112/2218 07008KT CAVOK
ATIS : +33 1 49 75 65 80
Nessun NOTAM noto per questo aeroporto.



MetMap, La meteo Aeronautica in un colpo d'occhio ! - Copyright ORBIFLY Dicembre 2007 - Disclaimer

ORBIFLY MET'MAP TEAM :

Programmazione e sviluppo : Alexandra Zaïnal
Concezione e sviluppo : Baudouin d'Aumeries
Co-Programmazione e sviluppo : Marc-Olivier Méhu
Supporto tecnico e logistico : Manuel Goepfert
Aiuto per la traduzione : Arnaldo La Scala

Contatto : metmap@orbifly.com




FONTI E CREDITI :

   NOAA